sensor_id;sensor_type;location;lat;lon;timestamp;temperature;humidity
4811;DHT22;2419;51.276;6.472;2024-03-06T00:02:08;5.20;99.90
4811;DHT22;2419;51.276;6.472;2024-03-06T00:04:36;5.10;99.90
4811;DHT22;2419;51.276;6.472;2024-03-06T00:07:05;5.10;99.90
4811;DHT22;2419;51.276;6.472;2024-03-06T00:09:34;5.00;99.90
4811;DHT22;2419;51.276;6.472;2024-03-06T00:12:03;5.10;99.90
4811;DHT22;2419;51.276;6.472;2024-03-06T00:14:33;5.10;99.90
4811;DHT22;2419;51.276;6.472;2024-03-06T00:17:04;5.10;99.90
4811;DHT22;2419;51.276;6.472;2024-03-06T00:19:34;5.00;99.90
4811;DHT22;2419;51.276;6.472;2024-03-06T00:22:02;5.00;99.90
4811;DHT22;2419;51.276;6.472;2024-03-06T00:24:30;5.00;99.90
4811;DHT22;2419;51.276;6.472;2024-03-06T00:26:59;5.00;99.90
4811;DHT22;2419;51.276;6.472;2024-03-06T00:29:28;5.00;99.90
4811;DHT22;2419;51.276;6.472;2024-03-06T00:31:59;4.90;99.90
4811;DHT22;2419;51.276;6.472;2024-03-06T00:34:29;4.80;99.90
4811;DHT22;2419;51.276;6.472;2024-03-06T00:36:57;4.90;99.90
4811;DHT22;2419;51.276;6.472;2024-03-06T00:39:25;4.80;99.90
4811;DHT22;2419;51.276;6.472;2024-03-06T00:41:53;4.60;99.90
4811;DHT22;2419;51.276;6.472;2024-03-06T00:44:22;4.40;99.90
4811;DHT22;2419;51.276;6.472;2024-03-06T00:46:49;4.30;99.90
4811;DHT22;2419;51.276;6.472;2024-03-06T00:49:18;4.20;99.90
4811;DHT22;2419;51.276;6.472;2024-03-06T00:51:47;4.20;99.90
4811;DHT22;2419;51.276;6.472;2024-03-06T00:54:16;4.30;99.90
4811;DHT22;2419;51.276;6.472;2024-03-06T00:56:44;4.30;99.90
4811;DHT22;2419;51.276;6.472;2024-03-06T00:59:12;4.40;99.90
4811;DHT22;2419;51.276;6.472;2024-03-06T01:01:40;4.40;99.90
4811;DHT22;2419;51.276;6.472;2024-03-06T01:04:08;4.40;99.90
4811;DHT22;2419;51.276;6.472;2024-03-06T01:06:36;4.40;99.90
4811;DHT22;2419;51.276;6.472;2024-03-06T01:09:06;4.50;99.90
4811;DHT22;2419;51.276;6.472;2024-03-06T01:11:34;4.60;99.90
4811;DHT22;2419;51.276;6.472;2024-03-06T01:14:02;4.50;99.90
4811;DHT22;2419;51.276;6.472;2024-03-06T01:16:30;4.40;99.90
4811;DHT22;2419;51.276;6.472;2024-03-06T01:18:59;4.40;99.90
4811;DHT22;2419;51.276;6.472;2024-03-06T01:21:27;4.40;99.90
4811;DHT22;2419;51.276;6.472;2024-03-06T01:23:55;4.40;99.90
4811;DHT22;2419;51.276;6.472;2024-03-06T01:26:25;4.50;99.90
4811;DHT22;2419;51.276;6.472;2024-03-06T01:28:53;4.60;99.90
4811;DHT22;2419;51.276;6.472;2024-03-06T01:31:21;4.60;99.90
4811;DHT22;2419;51.276;6.472;2024-03-06T01:33:49;4.70;99.90
4811;DHT22;2419;51.276;6.472;2024-03-06T01:36:17;4.80;99.90
4811;DHT22;2419;51.276;6.472;2024-03-06T01:38:45;4.80;99.90
4811;DHT22;2419;51.276;6.472;2024-03-06T01:41:14;4.80;99.90
4811;DHT22;2419;51.276;6.472;2024-03-06T01:43:44;4.90;99.90
4811;DHT22;2419;51.276;6.472;2024-03-06T01:46:12;5.10;99.90
4811;DHT22;2419;51.276;6.472;2024-03-06T01:48:40;5.10;99.90
4811;DHT22;2419;51.276;6.472;2024-03-06T01:51:09;5.00;99.90
4811;DHT22;2419;51.276;6.472;2024-03-06T01:53:38;5.00;99.90
4811;DHT22;2419;51.276;6.472;2024-03-06T01:56:07;5.00;99.90
4811;DHT22;2419;51.276;6.472;2024-03-06T01:58:39;5.10;99.90
4811;DHT22;2419;51.276;6.472;2024-03-06T02:01:09;5.10;99.90
4811;DHT22;2419;51.276;6.472;2024-03-06T02:03:37;5.20;99.90
4811;DHT22;2419;51.276;6.472;2024-03-06T02:06:06;5.30;99.90
4811;DHT22;2419;51.276;6.472;2024-03-06T02:08:35;5.20;99.90
4811;DHT22;2419;51.276;6.472;2024-03-06T02:11:03;5.20;99.90
4811;DHT22;2419;51.276;6.472;2024-03-06T02:13:34;5.20;99.90
4811;DHT22;2419;51.276;6.472;2024-03-06T02:16:02;5.20;99.90
4811;DHT22;2419;51.276;6.472;2024-03-06T02:18:32;5.20;99.90
4811;DHT22;2419;51.276;6.472;2024-03-06T02:21:01;5.20;99.90
4811;DHT22;2419;51.276;6.472;2024-03-06T02:23:29;5.30;99.90
4811;DHT22;2419;51.276;6.472;2024-03-06T02:25:57;5.40;99.90
4811;DHT22;2419;51.276;6.472;2024-03-06T02:28:25;5.30;99.90
4811;DHT22;2419;51.276;6.472;2024-03-06T02:30:53;5.30;99.90
4811;DHT22;2419;51.276;6.472;2024-03-06T02:33:21;5.40;99.90
4811;DHT22;2419;51.276;6.472;2024-03-06T02:35:50;5.40;99.90
4811;DHT22;2419;51.276;6.472;2024-03-06T02:38:19;5.50;99.90
4811;DHT22;2419;51.276;6.472;2024-03-06T02:40:47;5.60;99.90
4811;DHT22;2419;51.276;6.472;2024-03-06T02:43:15;5.60;99.90
4811;DHT22;2419;51.276;6.472;2024-03-06T02:45:43;5.50;99.90
4811;DHT22;2419;51.276;6.472;2024-03-06T02:48:11;5.50;99.90
4811;DHT22;2419;51.276;6.472;2024-03-06T02:50:39;5.50;99.90
4811;DHT22;2419;51.276;6.472;2024-03-06T02:53:07;5.40;99.90
4811;DHT22;2419;51.276;6.472;2024-03-06T02:55:36;5.40;99.90
4811;DHT22;2419;51.276;6.472;2024-03-06T02:58:05;5.40;99.90
4811;DHT22;2419;51.276;6.472;2024-03-06T03:00:33;5.30;99.90
4811;DHT22;2419;51.276;6.472;2024-03-06T03:03:01;5.30;99.90
4811;DHT22;2419;51.276;6.472;2024-03-06T03:05:29;5.20;99.90
4811;DHT22;2419;51.276;6.472;2024-03-06T03:07:57;5.20;99.90
4811;DHT22;2419;51.276;6.472;2024-03-06T03:10:25;5.10;99.90
4811;DHT22;2419;51.276;6.472;2024-03-06T03:12:55;5.00;99.90
4811;DHT22;2419;51.276;6.472;2024-03-06T03:15:23;4.80;99.90
4811;DHT22;2419;51.276;6.472;2024-03-06T03:17:51;4.80;99.90
4811;DHT22;2419;51.276;6.472;2024-03-06T03:20:19;4.80;99.90
4811;DHT22;2419;51.276;6.472;2024-03-06T03:22:47;4.70;99.90
4811;DHT22;2419;51.276;6.472;2024-03-06T03:25:16;4.70;99.90
4811;DHT22;2419;51.276;6.472;2024-03-06T03:27:44;4.70;99.90
4811;DHT22;2419;51.276;6.472;2024-03-06T03:30:14;4.70;99.90
4811;DHT22;2419;51.276;6.472;2024-03-06T03:32:42;4.60;99.90
4811;DHT22;2419;51.276;6.472;2024-03-06T03:35:12;4.50;99.90
4811;DHT22;2419;51.276;6.472;2024-03-06T03:37:42;4.40;99.90
4811;DHT22;2419;51.276;6.472;2024-03-06T03:40:10;4.30;99.90
4811;DHT22;2419;51.276;6.472;2024-03-06T03:42:39;4.40;99.90
4811;DHT22;2419;51.276;6.472;2024-03-06T03:45:07;4.40;99.90
4811;DHT22;2419;51.276;6.472;2024-03-06T03:47:37;4.40;99.90
4811;DHT22;2419;51.276;6.472;2024-03-06T03:50:06;4.30;99.90
4811;DHT22;2419;51.276;6.472;2024-03-06T03:52:37;4.40;99.90
4811;DHT22;2419;51.276;6.472;2024-03-06T03:55:09;4.30;99.90
4811;DHT22;2419;51.276;6.472;2024-03-06T03:57:38;4.00;99.90
4811;DHT22;2419;51.276;6.472;2024-03-06T04:00:07;3.90;99.90
4811;DHT22;2419;51.276;6.472;2024-03-06T04:02:40;4.00;99.90
4811;DHT22;2419;51.276;6.472;2024-03-06T04:05:08;4.00;99.90
4811;DHT22;2419;51.276;6.472;2024-03-06T04:07:37;4.00;99.90
4811;DHT22;2419;51.276;6.472;2024-03-06T04:10:07;4.10;99.90
4811;DHT22;2419;51.276;6.472;2024-03-06T04:12:38;4.00;99.90
4811;DHT22;2419;51.276;6.472;2024-03-06T04:15:07;3.90;99.90
4811;DHT22;2419;51.276;6.472;2024-03-06T04:17:35;3.90;99.90
4811;DHT22;2419;51.276;6.472;2024-03-06T04:20:06;3.80;99.90
4811;DHT22;2419;51.276;6.472;2024-03-06T04:22:34;3.80;99.90
4811;DHT22;2419;51.276;6.472;2024-03-06T04:25:03;3.90;99.90
4811;DHT22;2419;51.276;6.472;2024-03-06T04:27:31;3.90;99.90
4811;DHT22;2419;51.276;6.472;2024-03-06T04:29:59;3.80;99.90
4811;DHT22;2419;51.276;6.472;2024-03-06T04:32:28;3.80;99.90
4811;DHT22;2419;51.276;6.472;2024-03-06T04:34:56;3.80;99.90
4811;DHT22;2419;51.276;6.472;2024-03-06T04:37:25;3.80;99.90
4811;DHT22;2419;51.276;6.472;2024-03-06T04:39:56;3.70;99.90
4811;DHT22;2419;51.276;6.472;2024-03-06T04:42:24;3.60;99.90
4811;DHT22;2419;51.276;6.472;2024-03-06T04:44:52;3.60;99.90
4811;DHT22;2419;51.276;6.472;2024-03-06T04:47:20;3.50;99.90
4811;DHT22;2419;51.276;6.472;2024-03-06T04:49:48;3.60;99.90
4811;DHT22;2419;51.276;6.472;2024-03-06T04:52:17;3.50;99.90
4811;DHT22;2419;51.276;6.472;2024-03-06T04:54:46;3.30;99.90
4811;DHT22;2419;51.276;6.472;2024-03-06T04:57:14;3.10;99.90
4811;DHT22;2419;51.276;6.472;2024-03-06T04:59:42;3.10;99.90
4811;DHT22;2419;51.276;6.472;2024-03-06T05:02:10;3.20;99.90
4811;DHT22;2419;51.276;6.472;2024-03-06T05:04:38;3.10;99.90
4811;DHT22;2419;51.276;6.472;2024-03-06T05:07:23;3.20;99.90
4811;DHT22;2419;51.276;6.472;2024-03-06T05:10:10;3.20;99.90
4811;DHT22;2419;51.276;6.472;2024-03-06T05:12:56;3.30;99.90
4811;DHT22;2419;51.276;6.472;2024-03-06T05:15:41;3.20;99.90
4811;DHT22;2419;51.276;6.472;2024-03-06T05:18:27;3.30;99.90
4811;DHT22;2419;51.276;6.472;2024-03-06T05:21:13;3.20;99.90
4811;DHT22;2419;51.276;6.472;2024-03-06T05:23:58;3.20;99.90
4811;DHT22;2419;51.276;6.472;2024-03-06T05:26:45;3.20;99.90
4811;DHT22;2419;51.276;6.472;2024-03-06T05:29:31;3.00;99.90
4811;DHT22;2419;51.276;6.472;2024-03-06T05:32:16;2.90;99.90
4811;DHT22;2419;51.276;6.472;2024-03-06T05:35:03;2.70;99.90
4811;DHT22;2419;51.276;6.472;2024-03-06T05:37:48;2.60;99.90
4811;DHT22;2419;51.276;6.472;2024-03-06T05:40:34;2.50;99.90
4811;DHT22;2419;51.276;6.472;2024-03-06T05:43:23;2.40;99.90
4811;DHT22;2419;51.276;6.472;2024-03-06T05:46:08;2.40;99.90
4811;DHT22;2419;51.276;6.472;2024-03-06T05:48:54;2.40;99.90
4811;DHT22;2419;51.276;6.472;2024-03-06T05:51:39;2.70;99.90
4811;DHT22;2419;51.276;6.472;2024-03-06T05:54:25;2.90;99.90
4811;DHT22;2419;51.276;6.472;2024-03-06T05:57:11;3.00;99.90
4811;DHT22;2419;51.276;6.472;2024-03-06T05:59:58;3.10;99.90
4811;DHT22;2419;51.276;6.472;2024-03-06T06:02:26;3.20;99.90
4811;DHT22;2419;51.276;6.472;2024-03-06T06:04:54;3.10;99.90
4811;DHT22;2419;51.276;6.472;2024-03-06T06:07:42;3.00;99.90
4811;DHT22;2419;51.276;6.472;2024-03-06T06:10:10;2.90;99.90
4811;DHT22;2419;51.276;6.472;2024-03-06T06:12:38;2.90;99.90
4811;DHT22;2419;51.276;6.472;2024-03-06T06:15:09;2.90;99.90
4811;DHT22;2419;51.276;6.472;2024-03-06T06:17:37;2.90;99.90
4811;DHT22;2419;51.276;6.472;2024-03-06T06:20:07;2.80;99.90
4811;DHT22;2419;51.276;6.472;2024-03-06T06:22:37;2.80;99.90
4811;DHT22;2419;51.276;6.472;2024-03-06T06:25:05;2.70;99.90
4811;DHT22;2419;51.276;6.472;2024-03-06T06:27:34;2.80;99.90
4811;DHT22;2419;51.276;6.472;2024-03-06T06:30:02;2.90;99.90
4811;DHT22;2419;51.276;6.472;2024-03-06T06:32:34;2.90;99.90
4811;DHT22;2419;51.276;6.472;2024-03-06T06:35:03;3.00;99.90
4811;DHT22;2419;51.276;6.472;2024-03-06T06:37:32;3.20;99.90
4811;DHT22;2419;51.276;6.472;2024-03-06T06:40:01;3.50;99.90
4811;DHT22;2419;51.276;6.472;2024-03-06T06:42:33;3.60;99.90
4811;DHT22;2419;51.276;6.472;2024-03-06T06:45:02;3.70;99.90
4811;DHT22;2419;51.276;6.472;2024-03-06T06:47:31;3.70;99.90
4811;DHT22;2419;51.276;6.472;2024-03-06T06:50:01;3.70;99.90
4811;DHT22;2419;51.276;6.472;2024-03-06T06:52:32;4.00;99.90
4811;DHT22;2419;51.276;6.472;2024-03-06T06:55:01;4.20;99.90
4811;DHT22;2419;51.276;6.472;2024-03-06T06:57:30;4.40;99.90
4811;DHT22;2419;51.276;6.472;2024-03-06T07:00:00;4.70;99.90
4811;DHT22;2419;51.276;6.472;2024-03-06T07:02:28;4.80;99.90
4811;DHT22;2419;51.276;6.472;2024-03-06T07:04:56;5.00;99.90
4811;DHT22;2419;51.276;6.472;2024-03-06T07:07:27;5.00;99.90
4811;DHT22;2419;51.276;6.472;2024-03-06T07:09:55;5.00;99.90
4811;DHT22;2419;51.276;6.472;2024-03-06T07:12:23;5.00;99.90
4811;DHT22;2419;51.276;6.472;2024-03-06T07:14:52;5.10;99.90
4811;DHT22;2419;51.276;6.472;2024-03-06T07:17:20;5.20;99.90
4811;DHT22;2419;51.276;6.472;2024-03-06T07:19:48;5.20;99.90
4811;DHT22;2419;51.276;6.472;2024-03-06T07:22:17;5.40;99.90
4811;DHT22;2419;51.276;6.472;2024-03-06T07:24:46;6.00;99.90
4811;DHT22;2419;51.276;6.472;2024-03-06T07:27:14;6.50;99.90
4811;DHT22;2419;51.276;6.472;2024-03-06T07:29:42;6.60;99.90
4811;DHT22;2419;51.276;6.472;2024-03-06T07:32:10;6.80;99.90
4811;DHT22;2419;51.276;6.472;2024-03-06T07:34:39;7.10;99.90
4811;DHT22;2419;51.276;6.472;2024-03-06T07:37:07;7.40;99.90
4811;DHT22;2419;51.276;6.472;2024-03-06T07:39:35;7.70;99.90
4811;DHT22;2419;51.276;6.472;2024-03-06T07:42:05;8.00;99.90
4811;DHT22;2419;51.276;6.472;2024-03-06T07:44:33;8.70;99.90
4811;DHT22;2419;51.276;6.472;2024-03-06T07:47:02;8.80;99.90
4811;DHT22;2419;51.276;6.472;2024-03-06T07:49:30;9.20;99.90
4811;DHT22;2419;51.276;6.472;2024-03-06T07:51:58;9.60;99.90
4811;DHT22;2419;51.276;6.472;2024-03-06T07:54:27;10.10;99.90
4811;DHT22;2419;51.276;6.472;2024-03-06T07:56:55;11.10;99.90
4811;DHT22;2419;51.276;6.472;2024-03-06T07:59:24;12.00;99.90
4811;DHT22;2419;51.276;6.472;2024-03-06T08:01:52;11.30;99.90
4811;DHT22;2419;51.276;6.472;2024-03-06T08:04:22;10.90;99.90
4811;DHT22;2419;51.276;6.472;2024-03-06T08:06:51;11.40;99.90
4811;DHT22;2419;51.276;6.472;2024-03-06T08:09:19;10.50;99.90
4811;DHT22;2419;51.276;6.472;2024-03-06T08:11:47;10.20;99.90
4811;DHT22;2419;51.276;6.472;2024-03-06T08:14:16;9.70;99.90
4811;DHT22;2419;51.276;6.472;2024-03-06T08:16:45;9.50;99.90
4811;DHT22;2419;51.276;6.472;2024-03-06T08:19:14;9.10;99.90
4811;DHT22;2419;51.276;6.472;2024-03-06T08:21:42;8.70;99.90
4811;DHT22;2419;51.276;6.472;2024-03-06T08:24:10;8.50;99.90
4811;DHT22;2419;51.276;6.472;2024-03-06T08:26:38;8.80;99.90
4811;DHT22;2419;51.276;6.472;2024-03-06T08:29:07;9.40;99.90
4811;DHT22;2419;51.276;6.472;2024-03-06T08:31:35;10.00;99.90
4811;DHT22;2419;51.276;6.472;2024-03-06T08:34:04;10.20;99.90
4811;DHT22;2419;51.276;6.472;2024-03-06T08:36:33;10.70;99.90
4811;DHT22;2419;51.276;6.472;2024-03-06T08:39:01;10.70;99.90
4811;DHT22;2419;51.276;6.472;2024-03-06T08:41:29;10.60;99.90
4811;DHT22;2419;51.276;6.472;2024-03-06T08:43:58;10.70;99.90
4811;DHT22;2419;51.276;6.472;2024-03-06T08:46:26;10.70;99.90
4811;DHT22;2419;51.276;6.472;2024-03-06T08:48:54;11.30;99.90
4811;DHT22;2419;51.276;6.472;2024-03-06T08:51:23;11.90;99.90
4811;DHT22;2419;51.276;6.472;2024-03-06T08:53:52;12.10;99.90
4811;DHT22;2419;51.276;6.472;2024-03-06T08:56:20;12.20;99.90
4811;DHT22;2419;51.276;6.472;2024-03-06T08:58:48;12.50;99.90
4811;DHT22;2419;51.276;6.472;2024-03-06T09:01:16;12.70;99.90
4811;DHT22;2419;51.276;6.472;2024-03-06T09:03:44;12.60;99.90
4811;DHT22;2419;51.276;6.472;2024-03-06T09:06:12;12.30;99.90
4811;DHT22;2419;51.276;6.472;2024-03-06T09:08:42;12.50;99.90
4811;DHT22;2419;51.276;6.472;2024-03-06T09:11:10;12.80;99.90
4811;DHT22;2419;51.276;6.472;2024-03-06T09:13:39;12.90;99.90
4811;DHT22;2419;51.276;6.472;2024-03-06T09:16:07;13.10;99.90
4811;DHT22;2419;51.276;6.472;2024-03-06T09:18:35;13.10;99.90
4811;DHT22;2419;51.276;6.472;2024-03-06T09:21:03;13.10;99.90
4811;DHT22;2419;51.276;6.472;2024-03-06T09:23:32;13.40;99.90
4811;DHT22;2419;51.276;6.472;2024-03-06T09:26:02;12.90;99.90
4811;DHT22;2419;51.276;6.472;2024-03-06T09:28:30;12.30;99.90
4811;DHT22;2419;51.276;6.472;2024-03-06T09:30:58;12.80;99.90
4811;DHT22;2419;51.276;6.472;2024-03-06T09:33:27;13.80;99.90
4811;DHT22;2419;51.276;6.472;2024-03-06T09:35:55;14.20;99.90
4811;DHT22;2419;51.276;6.472;2024-03-06T09:38:24;14.30;99.90
4811;DHT22;2419;51.276;6.472;2024-03-06T09:40:55;13.80;99.90
4811;DHT22;2419;51.276;6.472;2024-03-06T09:43:25;13.70;99.90
4811;DHT22;2419;51.276;6.472;2024-03-06T09:45:57;14.50;99.90
4811;DHT22;2419;51.276;6.472;2024-03-06T09:48:25;14.00;99.90
4811;DHT22;2419;51.276;6.472;2024-03-06T09:50:54;14.40;99.90
4811;DHT22;2419;51.276;6.472;2024-03-06T09:53:26;14.20;99.90
4811;DHT22;2419;51.276;6.472;2024-03-06T09:55:55;13.80;99.90
4811;DHT22;2419;51.276;6.472;2024-03-06T09:58:25;14.60;99.90
4811;DHT22;2419;51.276;6.472;2024-03-06T10:00:55;14.80;99.90
4811;DHT22;2419;51.276;6.472;2024-03-06T10:03:25;15.80;99.90
4811;DHT22;2419;51.276;6.472;2024-03-06T10:05:53;15.20;99.90
4811;DHT22;2419;51.276;6.472;2024-03-06T10:08:22;16.10;99.90
4811;DHT22;2419;51.276;6.472;2024-03-06T10:10:53;17.30;99.20
4811;DHT22;2419;51.276;6.472;2024-03-06T10:13:25;17.40;96.70
4811;DHT22;2419;51.276;6.472;2024-03-06T10:15:57;17.00;96.70
4811;DHT22;2419;51.276;6.472;2024-03-06T10:18:27;17.00;96.60
4811;DHT22;2419;51.276;6.472;2024-03-06T10:20:55;18.10;96.20
4811;DHT22;2419;51.276;6.472;2024-03-06T10:23:23;18.10;94.70
4811;DHT22;2419;51.276;6.472;2024-03-06T10:25:52;18.00;94.50
4811;DHT22;2419;51.276;6.472;2024-03-06T10:28:21;18.20;92.50
4811;DHT22;2419;51.276;6.472;2024-03-06T10:30:51;16.80;93.10
4811;DHT22;2419;51.276;6.472;2024-03-06T10:33:31;17.30;95.00
4811;DHT22;2419;51.276;6.472;2024-03-06T10:35:59;16.20;96.60
4811;DHT22;2419;51.276;6.472;2024-03-06T10:38:34;17.40;95.00
4811;DHT22;2419;51.276;6.472;2024-03-06T10:41:04;17.70;94.80
4811;DHT22;2419;51.276;6.472;2024-03-06T10:43:36;18.90;91.50
4811;DHT22;2419;51.276;6.472;2024-03-06T10:46:08;18.60;91.70
4811;DHT22;2419;51.276;6.472;2024-03-06T10:48:40;17.20;92.00
4811;DHT22;2419;51.276;6.472;2024-03-06T10:51:10;16.20;93.10
4811;DHT22;2419;51.276;6.472;2024-03-06T10:53:43;14.90;97.40
4811;DHT22;2419;51.276;6.472;2024-03-06T10:56:13;15.90;96.70
4811;DHT22;2419;51.276;6.472;2024-03-06T10:58:42;15.00;97.40
4811;DHT22;2419;51.276;6.472;2024-03-06T11:01:12;14.60;98.40
4811;DHT22;2419;51.276;6.472;2024-03-06T11:03:40;14.20;99.30
4811;DHT22;2419;51.276;6.472;2024-03-06T11:06:08;14.20;99.90
4811;DHT22;2419;51.276;6.472;2024-03-06T11:08:37;14.20;99.90
4811;DHT22;2419;51.276;6.472;2024-03-06T11:11:20;14.40;99.90
4811;DHT22;2419;51.276;6.472;2024-03-06T11:13:49;14.30;99.90
4811;DHT22;2419;51.276;6.472;2024-03-06T11:16:20;14.10;99.90
4811;DHT22;2419;51.276;6.472;2024-03-06T11:19:05;15.00;99.90
4811;DHT22;2419;51.276;6.472;2024-03-06T11:21:34;16.40;99.90
4811;DHT22;2419;51.276;6.472;2024-03-06T11:24:16;17.70;94.80
4811;DHT22;2419;51.276;6.472;2024-03-06T11:26:52;18.50;95.40
4811;DHT22;2419;51.276;6.472;2024-03-06T11:29:23;20.20;92.50
4811;DHT22;2419;51.276;6.472;2024-03-06T11:32:03;20.10;86.30
4811;DHT22;2419;51.276;6.472;2024-03-06T11:34:35;19.60;80.80
4811;DHT22;2419;51.276;6.472;2024-03-06T11:37:04;19.00;85.00
4811;DHT22;2419;51.276;6.472;2024-03-06T11:39:34;17.50;86.30
4811;DHT22;2419;51.276;6.472;2024-03-06T11:42:04;19.10;85.90
4811;DHT22;2419;51.276;6.472;2024-03-06T11:44:35;18.20;89.20
4811;DHT22;2419;51.276;6.472;2024-03-06T11:47:08;18.00;90.10
4811;DHT22;2419;51.276;6.472;2024-03-06T11:49:37;18.60;88.60
4811;DHT22;2419;51.276;6.472;2024-03-06T11:52:06;17.70;86.30
4811;DHT22;2419;51.276;6.472;2024-03-06T11:54:37;18.60;89.00
4811;DHT22;2419;51.276;6.472;2024-03-06T11:57:05;19.80;83.70
4811;DHT22;2419;51.276;6.472;2024-03-06T11:59:35;18.50;81.00
4811;DHT22;2419;51.276;6.472;2024-03-06T12:02:07;16.90;84.60
4811;DHT22;2419;51.276;6.472;2024-03-06T12:04:37;15.50;89.70
4811;DHT22;2419;51.276;6.472;2024-03-06T12:07:06;15.20;92.50
4811;DHT22;2419;51.276;6.472;2024-03-06T12:09:38;15.90;91.60
4811;DHT22;2419;51.276;6.472;2024-03-06T12:12:10;16.60;89.90
4811;DHT22;2419;51.276;6.472;2024-03-06T12:14:39;17.20;86.00
4811;DHT22;2419;51.276;6.472;2024-03-06T12:17:13;17.30;86.30
4811;DHT22;2419;51.276;6.472;2024-03-06T12:19:43;17.90;83.10
4811;DHT22;2419;51.276;6.472;2024-03-06T12:22:12;17.60;84.40
4811;DHT22;2419;51.276;6.472;2024-03-06T12:24:41;17.60;85.10
4811;DHT22;2419;51.276;6.472;2024-03-06T12:27:09;18.20;87.70
4811;DHT22;2419;51.276;6.472;2024-03-06T12:29:39;18.50;82.30
4811;DHT22;2419;51.276;6.472;2024-03-06T12:32:17;18.20;84.50
4811;DHT22;2419;51.276;6.472;2024-03-06T12:34:56;18.60;82.70
4811;DHT22;2419;51.276;6.472;2024-03-06T12:37:29;19.10;82.30
4811;DHT22;2419;51.276;6.472;2024-03-06T12:39:59;19.60;78.70
4811;DHT22;2419;51.276;6.472;2024-03-06T12:42:27;20.30;78.00
4811;DHT22;2419;51.276;6.472;2024-03-06T12:44:55;19.00;75.40
4811;DHT22;2419;51.276;6.472;2024-03-06T12:47:25;20.20;77.40
4811;DHT22;2419;51.276;6.472;2024-03-06T12:49:53;19.90;73.00
4811;DHT22;2419;51.276;6.472;2024-03-06T12:52:22;20.20;70.30
4811;DHT22;2419;51.276;6.472;2024-03-06T12:54:50;20.70;68.20
4811;DHT22;2419;51.276;6.472;2024-03-06T12:57:18;20.90;67.90
4811;DHT22;2419;51.276;6.472;2024-03-06T12:59:46;20.80;67.10
4811;DHT22;2419;51.276;6.472;2024-03-06T13:02:14;20.70;66.90
4811;DHT22;2419;51.276;6.472;2024-03-06T13:04:44;20.40;67.10
4811;DHT22;2419;51.276;6.472;2024-03-06T13:07:12;17.90;65.80
4811;DHT22;2419;51.276;6.472;2024-03-06T13:09:41;17.40;69.80
4811;DHT22;2419;51.276;6.472;2024-03-06T13:12:09;16.60;72.10
4811;DHT22;2419;51.276;6.472;2024-03-06T13:14:37;16.40;73.50
4811;DHT22;2419;51.276;6.472;2024-03-06T13:17:05;15.70;78.10
4811;DHT22;2419;51.276;6.472;2024-03-06T13:19:34;15.20;79.80
4811;DHT22;2419;51.276;6.472;2024-03-06T13:22:04;14.70;85.00
4811;DHT22;2419;51.276;6.472;2024-03-06T13:24:34;14.80;85.70
4811;DHT22;2419;51.276;6.472;2024-03-06T13:27:04;15.20;87.50
4811;DHT22;2419;51.276;6.472;2024-03-06T13:29:32;15.40;81.20
4811;DHT22;2419;51.276;6.472;2024-03-06T13:32:00;15.50;77.70
4811;DHT22;2419;51.276;6.472;2024-03-06T13:34:29;15.40;80.30
4811;DHT22;2419;51.276;6.472;2024-03-06T13:36:58;15.40;86.70
4811;DHT22;2419;51.276;6.472;2024-03-06T13:39:28;15.60;88.30
4811;DHT22;2419;51.276;6.472;2024-03-06T13:41:56;15.80;90.50
4811;DHT22;2419;51.276;6.472;2024-03-06T13:44:24;15.40;90.70
4811;DHT22;2419;51.276;6.472;2024-03-06T13:46:52;15.30;91.30
4811;DHT22;2419;51.276;6.472;2024-03-06T13:49:36;14.60;91.40
4811;DHT22;2419;51.276;6.472;2024-03-06T13:52:05;14.60;91.00
4811;DHT22;2419;51.276;6.472;2024-03-06T13:54:35;14.70;91.10
4811;DHT22;2419;51.276;6.472;2024-03-06T13:57:04;14.50;91.40
4811;DHT22;2419;51.276;6.472;2024-03-06T13:59:33;14.10;93.10
4811;DHT22;2419;51.276;6.472;2024-03-06T14:02:01;14.10;94.00
4811;DHT22;2419;51.276;6.472;2024-03-06T14:04:30;14.30;93.20
4811;DHT22;2419;51.276;6.472;2024-03-06T14:06:58;14.10;92.80
4811;DHT22;2419;51.276;6.472;2024-03-06T14:09:27;14.20;94.20
4811;DHT22;2419;51.276;6.472;2024-03-06T14:11:57;13.90;93.80
4811;DHT22;2419;51.276;6.472;2024-03-06T14:14:25;14.10;92.20
4811;DHT22;2419;51.276;6.472;2024-03-06T14:16:53;13.80;94.00
4811;DHT22;2419;51.276;6.472;2024-03-06T14:19:22;13.70;93.00
4811;DHT22;2419;51.276;6.472;2024-03-06T14:21:50;13.40;92.40
4811;DHT22;2419;51.276;6.472;2024-03-06T14:24:18;13.60;93.50
4811;DHT22;2419;51.276;6.472;2024-03-06T14:26:47;13.70;93.20
4811;DHT22;2419;51.276;6.472;2024-03-06T14:29:17;13.60;93.70
4811;DHT22;2419;51.276;6.472;2024-03-06T14:31:46;13.30;92.90
4811;DHT22;2419;51.276;6.472;2024-03-06T14:34:14;13.10;93.80
4811;DHT22;2419;51.276;6.472;2024-03-06T14:36:42;13.10;94.60
4811;DHT22;2419;51.276;6.472;2024-03-06T14:39:10;13.00;95.10
4811;DHT22;2419;51.276;6.472;2024-03-06T14:41:40;13.20;94.80
4811;DHT22;2419;51.276;6.472;2024-03-06T14:44:09;12.90;95.00
4811;DHT22;2419;51.276;6.472;2024-03-06T14:46:39;12.90;96.00
4811;DHT22;2419;51.276;6.472;2024-03-06T14:49:08;12.70;95.90
4811;DHT22;2419;51.276;6.472;2024-03-06T14:51:36;12.50;95.40
4811;DHT22;2419;51.276;6.472;2024-03-06T14:54:04;12.90;96.30
4811;DHT22;2419;51.276;6.472;2024-03-06T14:56:32;13.00;94.10
4811;DHT22;2419;51.276;6.472;2024-03-06T14:59:01;13.10;94.20
4811;DHT22;2419;51.276;6.472;2024-03-06T15:01:29;13.20;93.90
4811;DHT22;2419;51.276;6.472;2024-03-06T15:03:58;13.30;93.00
4811;DHT22;2419;51.276;6.472;2024-03-06T15:06:27;13.50;94.80
4811;DHT22;2419;51.276;6.472;2024-03-06T15:08:55;13.20;95.10
4811;DHT22;2419;51.276;6.472;2024-03-06T15:11:23;13.30;94.20
4811;DHT22;2419;51.276;6.472;2024-03-06T15:13:51;13.30;94.40
4811;DHT22;2419;51.276;6.472;2024-03-06T15:16:19;13.20;93.60
4811;DHT22;2419;51.276;6.472;2024-03-06T15:18:48;13.00;93.60
4811;DHT22;2419;51.276;6.472;2024-03-06T15:21:21;12.90;93.20
4811;DHT22;2419;51.276;6.472;2024-03-06T15:23:49;12.80;93.30
4811;DHT22;2419;51.276;6.472;2024-03-06T15:26:19;12.80;93.50
4811;DHT22;2419;51.276;6.472;2024-03-06T15:28:47;12.70;94.20
4811;DHT22;2419;51.276;6.472;2024-03-06T15:31:15;12.80;95.20
4811;DHT22;2419;51.276;6.472;2024-03-06T15:33:43;12.80;96.00
4811;DHT22;2419;51.276;6.472;2024-03-06T15:36:14;12.90;95.60
4811;DHT22;2419;51.276;6.472;2024-03-06T15:38:44;12.80;95.50
4811;DHT22;2419;51.276;6.472;2024-03-06T15:41:12;12.80;95.40
4811;DHT22;2419;51.276;6.472;2024-03-06T15:43:40;12.70;94.50
4811;DHT22;2419;51.276;6.472;2024-03-06T15:46:09;12.50;94.00
4811;DHT22;2419;51.276;6.472;2024-03-06T15:48:37;12.40;94.90
4811;DHT22;2419;51.276;6.472;2024-03-06T15:51:06;12.40;94.60
4811;DHT22;2419;51.276;6.472;2024-03-06T15:53:35;12.50;94.60
4811;DHT22;2419;51.276;6.472;2024-03-06T15:56:05;12.40;95.00
4811;DHT22;2419;51.276;6.472;2024-03-06T15:58:33;12.50;95.40
4811;DHT22;2419;51.276;6.472;2024-03-06T16:01:01;12.60;96.20
4811;DHT22;2419;51.276;6.472;2024-03-06T16:03:32;12.80;97.60
4811;DHT22;2419;51.276;6.472;2024-03-06T16:06:00;12.80;96.80
4811;DHT22;2419;51.276;6.472;2024-03-06T16:08:41;12.80;97.40
4811;DHT22;2419;51.276;6.472;2024-03-06T16:11:11;12.80;97.60
4811;DHT22;2419;51.276;6.472;2024-03-06T16:13:39;12.90;97.50
4811;DHT22;2419;51.276;6.472;2024-03-06T16:16:07;13.00;97.50
4811;DHT22;2419;51.276;6.472;2024-03-06T16:18:36;13.00;97.40
4811;DHT22;2419;51.276;6.472;2024-03-06T16:21:04;12.90;97.70
4811;DHT22;2419;51.276;6.472;2024-03-06T16:23:33;13.00;97.80
4811;DHT22;2419;51.276;6.472;2024-03-06T16:26:01;13.00;97.50
4811;DHT22;2419;51.276;6.472;2024-03-06T16:28:31;13.10;97.30